Dobrodošli na spletni strani vremenske postaje Senovo. Vse informacije so informativnega značaja, saj vremenska postaja ni del državne mreže meteoroloških postaj. AKTUALNIH OBVESTIL NI.


Sneg/Led Od: 21-02-2018 00:00 Do: 23-02-2018 23:59 Opozorilo za: Sneg/Led Stopnja: Rumena info button
Veter Od: 21-02-2018 00:00 Do: 22-02-2018 23:59 Opozorilo za: Veter Stopnja: Rumena info button

Pogled proti Armezu več informacij Pogled proti Armezu


Lisca več informacij Lisca


Radar strel več informacij blitzortung!


opozorilo za sneg/led več informacij rain snow radar


Obiščite še:

Template documentation
and downloads

And another site



Weather Underground, zgodovina - Tekstovno

Dnevni povzetek za Januar 8, 2018 Enote:  Metrično    Angleško   Obe
« Predhodni Dan
Naslednji Dan »
Dnevni Tedenski Mesečni Letni Po meri
  Višja: Nižja: Povprečje:
Temperatura: -17.8 °C -16.1 °C -14.3 °C
Točka rosišča: -17.8 °C -16.4 °C -14.6 °C
Vlažnost: Humidity % 95 % 96 %
Hitrost vetra: 0 km/h 0 km/h 0.6 km/h
Sunki vetra: 0 km/h - -
Veter:- - SSW
Zračni tlak: 0 hPa 34601.5 hPa -
Padavine: 0 mm    
Historical Graphs
 
 
Tabelarni podarki za Januar 8, 2018
Čas Temperatura Točka rosišča Zračni tlak Veter Hitrost vetra Sunki vetra Vlažnost Intenziteta padavin (urna)
-17.8 °C -17.8 °C 0 hPa Calm     Humidity % 0 mm
00:00 -15.6 °C -15.9 °C 34635.4 hPa Calm     95 % 0 mm
00:05 -15.6 °C -15.9 °C 34635.4 hPa Calm     95 % 0 mm
00:10 -15.6 °C -15.9 °C 34635.4 hPa Calm     96 % 0 mm
00:15 -15.6 °C -15.9 °C 34635.4 hPa Calm     96 % 0 mm
00:20 -15.6 °C -15.9 °C 34635.4 hPa Calm     96 % 0 mm
00:25 -15.6 °C -15.9 °C 34635.4 hPa Calm     96 % 0 mm
00:26 -15.6 °C -15.9 °C 34635.4 hPa Calm     96 % 0 mm
00:31 -15.7 °C -16 °C 34635.4 hPa Calm     96 % 0 mm
00:34 -15.7 °C -16 °C 34635.4 hPa Calm     96 % 0 mm
00:40 -15.7 °C -16 °C 34635.4 hPa Calm     96 % 0 mm
00:45 -15.7 °C -16 °C 34601.5 hPa Calm     96 % 0 mm
00:50 -15.7 °C -16 °C 34601.5 hPa Calm     96 % 0 mm
00:55 -15.7 °C -16 °C 34601.5 hPa Calm     96 % 0 mm
01:00 -15.7 °C -16 °C 34635.4 hPa Calm     96 % 0 mm
01:06 -15.7 °C -16.1 °C 34635.4 hPa Calm     96 % 0 mm
01:11 -15.7 °C -16.1 °C 34635.4 hPa Calm     96 % 0 mm
01:14 -15.7 °C -16.1 °C 34601.5 hPa Calm     96 % 0 mm
01:20 -15.7 °C -16.1 °C 34601.5 hPa Calm     96 % 0 mm
01:25 -15.7 °C -16.1 °C 34601.5 hPa Calm     96 % 0 mm
01:30 -15.7 °C -16.1 °C 34601.5 hPa Calm     96 % 0 mm
01:35 -15.8 °C -16.1 °C 34601.5 hPa Calm     96 % 0 mm
01:40 -15.8 °C -16.1 °C 34601.5 hPa Calm     96 % 0 mm
01:45 -15.8 °C -16.1 °C 34601.5 hPa Calm     96 % 0 mm
01:50 -15.8 °C -16.1 °C 34601.5 hPa Calm     96 % 0 mm
01:55 -15.8 °C -16.2 °C 34601.5 hPa Calm     96 % 0 mm
01:59 -15.8 °C -16.2 °C 34635.4 hPa Calm     96 % 0 mm
02:04 -15.8 °C -16.2 °C 34635.4 hPa Calm     96 % 0 mm
02:09 -15.8 °C -16.2 °C 34635.4 hPa Calm     96 % 0 mm
02:14 -15.9 °C -16.2 °C 34669.3 hPa Calm     96 % 0 mm
02:19 -15.9 °C -16.2 °C 34669.3 hPa Calm     96 % 0 mm
02:24 -15.9 °C -16.2 °C 34669.3 hPa Calm     96 % 0 mm
02:28 -15.9 °C -16.2 °C 34635.4 hPa Calm     96 % 0 mm
02:33 -15.9 °C -16.2 °C 34635.4 hPa Calm     96 % 0 mm
02:35 -15.9 °C -16.2 °C 34635.4 hPa NNW 0.3 km/h 6.4 km/h 96 % 0 mm
02:40 -15.9 °C -16.3 °C 34635.4 hPa NNW 0.8 km/h 6.4 km/h 96 % 0 mm
02:45 -15.9 °C -16.3 °C 34635.4 hPa North 0.3 km/h   96 % 0 mm
02:50 -15.9 °C -16.3 °C 34635.4 hPa Calm     96 % 0 mm
02:55 -15.9 °C -16.3 °C 34635.4 hPa Calm     96 % 0 mm
02:59 -15.9 °C -16.3 °C 34635.4 hPa Calm     96 % 0 mm
03:04 -15.9 °C -16.3 °C 34635.4 hPa Calm     96 % 0 mm
03:10 -15.9 °C -16.3 °C 34635.4 hPa Calm     96 % 0 mm
03:15 -16 °C -16.3 °C 34635.4 hPa Calm     96 % 0 mm
03:20 -16 °C -16.3 °C 34635.4 hPa Calm     96 % 0 mm
03:25 -16 °C -16.3 °C 34635.4 hPa Calm     96 % 0 mm
03:27 -16 °C -16.3 °C 34635.4 hPa Calm     96 % 0 mm
03:32 -16 °C -16.3 °C 34635.4 hPa Calm     96 % 0 mm
03:35 -16 °C -16.3 °C 34635.4 hPa Calm     96 % 0 mm
03:41 -16 °C -16.3 °C 34635.4 hPa Calm     96 % 0 mm
03:46 -16 °C -16.3 °C 34635.4 hPa Calm     96 % 0 mm
03:51 -16 °C -16.3 °C 34635.4 hPa Calm     96 % 0 mm
03:54 -16.1 °C -16.4 °C 34635.4 hPa Calm     96 % 0 mm
03:59 -16.1 °C -16.4 °C 34635.4 hPa Calm     96 % 0 mm
04:10 -16.1 °C -16.4 °C 34635.4 hPa Calm     96 % 0 mm
04:16 -16.1 °C -16.4 °C 34635.4 hPa Calm     96 % 0 mm
04:21 -16.1 °C -16.3 °C 34635.4 hPa Calm   3.4 km/h 97 % 0 mm
04:27 -16.1 °C -16.3 °C 34635.4 hPa WSW 1 km/h 6.4 km/h 97 % 0 mm
04:34 -16 °C -16.2 °C 34635.4 hPa NNW 0.5 km/h 3.4 km/h 97 % 0 mm
04:41 -15.9 °C -16.2 °C 34635.4 hPa NW 0.3 km/h 2.9 km/h 97 % 0 mm
04:49 -15.9 °C -16.2 °C 34635.4 hPa Calm     97 % 0 mm
05:05 -15.9 °C -16.2 °C 34669.3 hPa Calm     97 % 0 mm
05:14 -15.8 °C -16 °C 34669.3 hPa Calm     97 % 0 mm
05:19 -15.8 °C -16 °C 34669.3 hPa Calm     97 % 0 mm
05:25 -15.7 °C -15.9 °C 34669.3 hPa Calm     97 % 0 mm
05:32 -15.7 °C -15.9 °C 34669.3 hPa Calm   2.3 km/h 97 % 0 mm
05:40 -15.7 °C -15.9 °C 34669.3 hPa Calm     97 % 0 mm
05:55 -15.6 °C -15.9 °C 34669.3 hPa Calm     97 % 0 mm
06:05 -15.6 °C -15.9 °C 34669.3 hPa Calm     97 % 0 mm
06:41 -15.7 °C -15.9 °C 34669.3 hPa Calm     97 % 0 mm
07:14 -15.8 °C -16 °C 34703.1 hPa Calm     97 % 0 mm
08:11 -15.7 °C -15.9 °C 34703.1 hPa Calm     98 % 0 mm
09:17 -15.3 °C -15.5 °C 34669.3 hPa SW 1.3 km/h 6.4 km/h 98 % 0 mm
09:58 -14.9 °C -15.1 °C 34703.1 hPa Calm     98 % 0 mm
10:07 -14.8 °C -15 °C 34703.1 hPa Calm     98 % 0 mm
10:13 -14.8 °C -14.9 °C 34703.1 hPa Calm     98 % 0 mm
10:18 -14.8 °C -14.9 °C 34703.1 hPa Calm     98 % 0 mm
10:23 -14.8 °C -14.9 °C 34703.1 hPa Calm     98 % 0 mm
10:24 -14.7 °C -14.9 °C 34703.1 hPa Calm     98 % 0 mm
10:30 -14.8 °C -14.9 °C 34703.1 hPa Calm     98 % 0 mm
10:35 -14.7 °C -14.9 °C 34703.1 hPa Calm     98 % 0 mm
10:40 -14.7 °C -14.8 °C 34703.1 hPa Calm     98 % 0 mm
10:42 -14.7 °C -14.8 °C 34703.1 hPa Calm     98 % 0 mm
10:43 -14.7 °C -14.8 °C 34669.3 hPa Calm     98 % 0 mm
10:49 -14.6 °C -14.7 °C 34669.3 hPa Calm     98 % 0 mm
10:55 -14.5 °C -14.7 °C 34669.3 hPa Calm     98 % 0 mm
11:00 -14.4 °C -14.6 °C 34669.3 hPa SSW 1.8 km/h 6.9 km/h 98 % 0 mm
11:05 -14.3 °C -14.4 °C 34669.3 hPa SSW 3.4 km/h 7.6 km/h 98 % 0 mm
11:10 -14.2 °C -14.4 °C 34669.3 hPa SSW 2.3 km/h 7.6 km/h 98 % 0 mm
11:11 -14.2 °C -14.4 °C 34669.3 hPa SSW 2.3 km/h 7.6 km/h 98 % 0 mm
11:16 -14.2 °C -14.4 °C 34669.3 hPa South 0.5 km/h 4.2 km/h 98 % 0 mm
11:21 -14.2 °C -14.3 °C 34669.3 hPa East 0.5 km/h 4.2 km/h 98 % 0 mm
11:26 -14.1 °C -14.3 °C 34669.3 hPa East 0.8 km/h 4.2 km/h 98 % 0 mm
11:27 -14.1 °C -14.2 °C 34703.1 hPa East 0.8 km/h 4.2 km/h 98 % 0 mm
11:32 -13.9 °C -14.1 °C 34703.1 hPa ESE 0.8 km/h 4.2 km/h 98 % 0 mm
11:37 -13.8 °C -14 °C 34703.1 hPa ESE 0.5 km/h 4.2 km/h 98 % 0 mm
11:39 -13.8 °C -14 °C 34703.1 hPa SE 0.3 km/h 2.9 km/h 98 % 0 mm
11:45 -13.7 °C -13.9 °C 34703.1 hPa SE 0.3 km/h 5.6 km/h 98 % 0 mm
11:50 -13.6 °C -13.8 °C 34703.1 hPa East 0.3 km/h 3.4 km/h 98 % 0 mm
11:56 -13.5 °C -13.7 °C 34703.1 hPa SE 0.8 km/h 6.4 km/h 98 % 0 mm
12:01 -13.3 °C -13.5 °C 34703.1 hPa SE 3.4 km/h 9.8 km/h 98 % 0 mm
12:06 -13.2 °C -13.4 °C 34703.1 hPa SSE 5.1 km/h 9.8 km/h 98 % 0 mm
12:11 -13.2 °C -13.3 °C 34703.1 hPa SSE 4.3 km/h 9.3 km/h 98 % 0 mm
12:17 -13.1 °C -13.3 °C 34669.3 hPa SE 2.9 km/h 6.9 km/h 98 % 0 mm
12:20 -13.1 °C -13.2 °C 34669.3 hPa SE 2.1 km/h 6.9 km/h 98 % 0 mm
12:25 -12.9 °C -13.1 °C 34669.3 hPa SE 0.5 km/h 6.4 km/h 98 % 0 mm
12:27 -12.8 °C -13 °C 34669.3 hPa SSE 1 km/h 6.4 km/h 98 % 0 mm
12:32 -12.7 °C -12.8 °C 34669.3 hPa SSE 1 km/h 6.4 km/h 98 % 0 mm
12:38 -12.6 °C -12.7 °C 34669.3 hPa Calm   2.3 km/h 98 % 0 mm
12:43 -12.4 °C -12.6 °C 34669.3 hPa South 1.8 km/h 6.4 km/h 98 % 0 mm
12:46 -12.3 °C -12.4 °C 34669.3 hPa South 2.9 km/h 6.4 km/h 98 % 0 mm
12:51 -12.2 °C -12.3 °C 34669.3 hPa SSE 2.9 km/h 6.4 km/h 98 % 0 mm
12:56 -12.1 °C -12.3 °C 34669.3 hPa ESE 0.5 km/h 5.1 km/h 98 % 0 mm
12:57 -12.1 °C -12.2 °C 34635.4 hPa ESE 0.5 km/h 5.1 km/h 98 % 0 mm
13:02 -11.9 °C -12.1 °C 34635.4 hPa South 0.3 km/h 5.6 km/h 98 % 0 mm
13:08 -11.8 °C -12 °C 34635.4 hPa South 0.8 km/h 5.6 km/h 98 % 0 mm
13:13 -11.8 °C -12 °C 34635.4 hPa SSE 1 km/h 5.1 km/h 98 % 0 mm
13:18 -11.8 °C -11.9 °C 34635.4 hPa South 2.6 km/h 6.9 km/h 98 % 0 mm
13:24 -11.8 °C -11.9 °C 34635.4 hPa South 3.9 km/h 6.9 km/h 98 % 0 mm
13:29 -11.7 °C -11.9 °C 34635.4 hPa SSE 3.9 km/h 7.6 km/h 98 % 0 mm
13:31 -11.7 °C -11.9 °C 34635.4 hPa SSE 3.9 km/h 7.6 km/h 98 % 0 mm
13:41 -11.7 °C -11.9 °C 34635.4 hPa SE 5 km/h 8 km/h 97 % 0 mm
13:43 -11.7 °C -11.9 °C 34601.5 hPa SE 5.1 km/h 8 km/h 97 % 0 mm
13:49 -11.7 °C -11.9 °C 34601.5 hPa SE 3.7 km/h 8 km/h 97 % 0 mm
13:54 -11.6 °C -11.8 °C 34601.5 hPa SE 0.5 km/h 6.4 km/h 97 % 0 mm
13:57 -11.6 °C -11.8 °C 34601.5 hPa SSE 1.6 km/h 7.6 km/h 97 % 0 mm
14:02 -11.6 °C -11.8 °C 34601.5 hPa SSE 4.2 km/h 9.3 km/h 97 % 0 mm
14:08 -11.5 °C -11.8 °C 34601.5 hPa SSE 5.5 km/h 9.3 km/h 97 % 0 mm
14:12 -11.4 °C -11.7 °C 34669.3 hPa SSE 5 km/h 9.3 km/h 97 % 0 mm
14:18 -11.3 °C -11.6 °C 34669.3 hPa SSE 2.1 km/h 8 km/h 97 % 0 mm
14:23 -11.3 °C -11.6 °C 34669.3 hPa South 0.5 km/h 5.1 km/h 97 % 0 mm
14:29 -11.2 °C -11.4 °C 34669.3 hPa South 2.1 km/h 7.6 km/h 97 % 0 mm
14:34 -11.2 °C -11.4 °C 34669.3 hPa South 2.9 km/h 6.9 km/h 97 % 0 mm
14:39 -11.1 °C -11.3 °C 34669.3 hPa SSE 2.1 km/h 6.9 km/h 97 % 0 mm
14:45 -11 °C -11.3 °C 34635.4 hPa South 2.9 km/h 8.9 km/h 97 % 0 mm
14:50 -11 °C -11.3 °C 34635.4 hPa South 3.7 km/h 8.9 km/h 97 % 0 mm
14:56 -11 °C -11.3 °C 34635.4 hPa South 4.3 km/h 9.8 km/h 97 % 0 mm
15:00 -11.1 °C -11.3 °C 34635.4 hPa South 3.7 km/h 9.8 km/h 97 % 0 mm
15:06 -11.3 °C -11.6 °C 34635.4 hPa South 0.5 km/h 4.2 km/h 97 % 0 mm
15:11 -11.4 °C -11.7 °C 34635.4 hPa WSW 0.8 km/h 7.6 km/h 96 % 0 mm
15:17 -11.6 °C -11.9 °C 34601.5 hPa West 2.6 km/h 8 km/h 96 % 0 mm
15:23 -11.8 °C -12.1 °C 34601.5 hPa WSW 1.3 km/h 6.9 km/h 96 % 0 mm
15:29 -12 °C -12.3 °C 34601.5 hPa SSW 2.3 km/h 6.9 km/h 96 % 0 mm
15:35 -12.2 °C -12.7 °C 34601.5 hPa SW 2.6 km/h 6.9 km/h 95 % 0 mm
15:38 -12.3 °C -12.7 °C 34601.5 hPa WSW 1.6 km/h 6.9 km/h 95 % 0 mm
15:43 -12.4 °C -12.8 °C 34601.5 hPa NW 3.9 km/h 8.9 km/h 95 % 0 mm
15:50 -12.6 °C -12.9 °C 34601.5 hPa NW 2.1 km/h 8.9 km/h 95 % 0 mm
15:55 -12.6 °C -13 °C 34601.5 hPa West 0.8 km/h 6.9 km/h 95 % 0 mm
15:58 -12.7 °C -13.1 °C 34601.5 hPa West 1.3 km/h 6.9 km/h 95 % 0 mm
16:04 -12.8 °C -13.2 °C 34601.5 hPa WNW 1.6 km/h 8 km/h 95 % 0 mm
16:14 -13 °C -13.4 °C 34635.4 hPa WNW 4.2 km/h 9.8 km/h 95 % 0 mm
16:19 -13.1 °C -13.5 °C 34635.4 hPa NW 1.3 km/h 6.4 km/h 95 % 0 mm
16:25 -13.2 °C -13.7 °C 34635.4 hPa NW 0.8 km/h 6.4 km/h 95 % 0 mm
16:31 -13.4 °C -13.8 °C 34669.3 hPa Calm     95 % 0 mm
16:37 -13.5 °C -13.9 °C 34669.3 hPa Calm     95 % 0 mm
16:43 -13.6 °C -14 °C 34669.3 hPa Calm     95 % 0 mm
16:48 -13.7 °C -14.1 °C 34669.3 hPa Calm     95 % 0 mm
16:50 -13.7 °C -14.1 °C 34669.3 hPa Calm     95 % 0 mm
16:55 -13.8 °C -14.2 °C 34669.3 hPa Calm     95 % 0 mm
16:57 -13.8 °C -14.3 °C 34669.3 hPa Calm     95 % 0 mm
17:03 -13.9 °C -14.3 °C 34669.3 hPa Calm     95 % 0 mm
17:09 -14.1 °C -14.5 °C 34669.3 hPa Calm     95 % 0 mm
17:15 -14.2 °C -14.6 °C 34669.3 hPa Calm     95 % 0 mm
17:23 -14.3 °C -14.8 °C 34669.3 hPa Calm     95 % 0 mm
17:29 -14.4 °C -14.8 °C 34669.3 hPa NW 0.5 km/h 5.1 km/h 95 % 0 mm
17:33 -14.4 °C -14.8 °C 34669.3 hPa NW 0.5 km/h 5.1 km/h 95 % 0 mm
17:36 -14.4 °C -14.8 °C 34669.3 hPa Calm     95 % 0 mm
17:37 -14.4 °C -14.8 °C 34669.3 hPa Calm     95 % 0 mm
17:43 -14.6 °C -14.9 °C 34669.3 hPa Calm     95 % 0 mm
17:44 -14.6 °C -14.9 °C 34669.3 hPa Calm     95 % 0 mm
17:47 -14.6 °C -14.9 °C 34669.3 hPa NW 0.3 km/h 6.4 km/h 95 % 0 mm
17:53 -14.6 °C -15.1 °C 34669.3 hPa NW 1 km/h 6.4 km/h 95 % 0 mm
18:00 -14.6 °C -15.1 °C 34669.3 hPa Calm     95 % 0 mm
18:05 -14.6 °C -14.9 °C 34669.3 hPa Calm     95 % 0 mm
18:11 -14.6 °C -14.9 °C 34669.3 hPa Calm     95 % 0 mm
18:16 -14.5 °C -14.8 °C 34669.3 hPa Calm     96 % 0 mm
18:21 -14.5 °C -14.8 °C 34669.3 hPa Calm     96 % 0 mm
18:26 -14.4 °C -14.8 °C 34669.3 hPa Calm     95 % 0 mm
18:31 -14.4 °C -14.7 °C 34669.3 hPa Calm     96 % 0 mm
18:34 -14.4 °C -14.7 °C 34669.3 hPa Calm     96 % 0 mm
18:40 -14.3 °C -14.7 °C 34669.3 hPa Calm     96 % 0 mm
18:45 -14.3 °C -14.6 °C 34703.1 hPa West 0.8 km/h 6.4 km/h 96 % 0 mm
18:50 -14.2 °C -14.6 °C 34703.1 hPa West 0.8 km/h 6.4 km/h 96 % 0 mm
18:54 -14.2 °C -14.5 °C 34703.1 hPa Calm     96 % 0 mm
18:55 -14.2 °C -14.5 °C 34703.1 hPa Calm     96 % 0 mm
19:00 -14.2 °C -14.5 °C 34669.3 hPa Calm     96 % 0 mm
19:05 -14.1 °C -14.4 °C 34669.3 hPa Calm     96 % 0 mm
19:10 -14.1 °C -14.4 °C 34669.3 hPa Calm     96 % 0 mm
19:13 -14.1 °C -14.4 °C 34669.3 hPa Calm     96 % 0 mm
19:18 -14 °C -14.3 °C 34669.3 hPa Calm     96 % 0 mm
19:20 -14 °C -14.3 °C 34669.3 hPa Calm     96 % 0 mm
19:25 -13.9 °C -14.3 °C 34669.3 hPa West 0.5 km/h 5.6 km/h 96 % 0 mm
19:30 -14 °C -14.3 °C 34703.1 hPa West 0.5 km/h 5.6 km/h 97 % 0 mm
19:32 -14 °C -14.3 °C 34703.1 hPa North 0.3 km/h   97 % 0 mm
19:37 -13.9 °C -14.2 °C 34703.1 hPa Calm     97 % 0 mm
19:42 -13.9 °C -14.2 °C 34703.1 hPa Calm     97 % 0 mm
19:47 -13.9 °C -14.2 °C 34703.1 hPa Calm     96 % 0 mm
19:50 -13.9 °C -14.2 °C 34703.1 hPa Calm     96 % 0 mm
19:56 -13.9 °C -14.2 °C 34703.1 hPa Calm     96 % 0 mm
20:01 -13.9 °C -14.2 °C 34703.1 hPa Calm     97 % 0 mm
20:06 -13.9 °C -14.2 °C 34703.1 hPa Calm     96 % 0 mm
20:08 -13.9 °C -14.2 °C 34703.1 hPa Calm     96 % 0 mm
20:11 -13.9 °C -14.2 °C 34703.1 hPa Calm     97 % 0 mm
20:16 -13.9 °C -14.2 °C 34703.1 hPa Calm     97 % 0 mm
20:18 -13.9 °C -14.2 °C 34703.1 hPa Calm     97 % 0 mm
20:20 -14 °C -14.3 °C 34703.1 hPa Calm     97 % 0 mm
20:25 -14 °C -14.3 °C 34703.1 hPa Calm     97 % 0 mm
20:30 -14 °C -14.3 °C 34703.1 hPa Calm     97 % 0 mm
20:35 -14 °C -14.3 °C 34703.1 hPa Calm     97 % 0 mm
20:39 -14 °C -14.3 °C 34703.1 hPa Calm     97 % 0 mm
20:44 -14.1 °C -14.3 °C 34703.1 hPa Calm     97 % 0 mm
20:46 -14.1 °C -14.3 °C 34703.1 hPa Calm     97 % 0 mm
20:51 -14.1 °C -14.3 °C 34703.1 hPa Calm     97 % 0 mm
20:56 -14.1 °C -14.3 °C 34703.1 hPa Calm     97 % 0 mm
21:01 -14.1 °C -14.3 °C 34703.1 hPa Calm     97 % 0 mm
21:07 -14.1 °C -14.3 °C 34703.1 hPa Calm     97 % 0 mm
21:13 -14.1 °C -14.3 °C 34703.1 hPa Calm     97 % 0 mm
21:19 -14.1 °C -14.3 °C 34703.1 hPa Calm     97 % 0 mm
21:27 -14.1 °C -14.3 °C 34703.1 hPa Calm     97 % 0 mm
21:38 -14.1 °C -14.3 °C 34703.1 hPa Calm     97 % 0 mm
21:50 -14.2 °C -14.4 °C 34703.1 hPa Calm     97 % 0 mm
22:03 -14.2 °C -14.4 °C 34703.1 hPa Calm     97 % 0 mm
22:12 -14.2 °C -14.5 °C 34703.1 hPa Calm     97 % 0 mm
22:19 -14.2 °C -14.5 °C 34703.1 hPa Calm     97 % 0 mm
22:24 -14.3 °C -14.6 °C 34703.1 hPa Calm     97 % 0 mm
22:29 -14.3 °C -14.6 °C 34703.1 hPa Calm     97 % 0 mm
22:37 -14.3 °C -14.6 °C 34703.1 hPa Calm     97 % 0 mm
22:43 -14.4 °C -14.6 °C 34703.1 hPa Calm   3.4 km/h 97 % 0 mm
22:48 -14.4 °C -14.7 °C 34703.1 hPa Calm   3.4 km/h 97 % 0 mm
22:53 -14.6 °C -14.8 °C 34703.1 hPa Calm     97 % 0 mm
22:59 -14.6 °C -14.8 °C 34703.1 hPa Calm     97 % 0 mm
23:05 -14.7 °C -14.9 °C 34703.1 hPa Calm     97 % 0 mm
23:10 -14.7 °C -14.9 °C 34703.1 hPa Calm     97 % 0 mm
23:16 -14.8 °C -15.1 °C 34703.1 hPa Calm     97 % 0 mm
23:24 -14.8 °C -15.1 °C 34703.1 hPa Calm     97 % 0 mm
23:25 -14.9 °C -15.1 °C 34703.1 hPa Calm     97 % 0 mm
23:30 -14.9 °C -15.1 °C 34703.1 hPa Calm     97 % 0 mm
23:35 -14.9 °C -15.1 °C 34703.1 hPa Calm     97 % 0 mm
23:37 -14.9 °C -15.1 °C 34703.1 hPa Calm     97 % 0 mm
23:42 -14.8 °C -15.1 °C 34703.1 hPa Calm     97 % 0 mm
23:48 -14.8 °C -15.1 °C 34703.1 hPa Calm     97 % 0 mm
23:49 -14.8 °C -15.1 °C 34703.1 hPa Calm     97 % 0 mm
23:53 -14.8 °C -15.1 °C 34703.1 hPa Calm     97 % 0 mm
23:54 -14.8 °C -15.1 °C 34703.1 hPa Calm     97 % 0 mm
23:55 -14.8 °C -15.1 °C 34703.1 hPa Calm     97 % 0 mm
23:56 -14.8 °C -15.1 °C 34703.1 hPa Calm     97 % 0 mm
23:57 -14.8 °C -15.1 °C 34703.1 hPa Calm     97 % 0 mm
23:58 -14.8 °C -15.1 °C 34703.1 hPa Calm     97 % 0 mm
Vremenska postaja Senovo
Podatki zbrani iz Weather Underground - 2.75 mb

Script developed by  Jim McMurry - jmcmurry@mwt.net Adapted for the template by  Wim van der Kuil - Leuven-Template.eu

Vremenski podatki so objavljeni na:

European Weather Network

WeatherCloud

Weather Underground

AWEKAS

HAMweather, WeatherForYou, PWS Weather

MapView

Geostik

Slovenia weather network

Oprema, ki se uporablja:

Vremenski program
Cumulus

Vremenski server
Asus

Cumulus

Asus